Time;durP1;ratioP1;P1;durP2;ratioP2;P2;SDS_P1;SDS_P2;PMS_P1;PMS_P2;Temp;Humidity;BMP_temperature;BMP_pressure;BME280_temperature;BME280_humidity;BME280_pressure;Samples;Min_cycle;Max_cycle;Signal;HPM_P1;HPM_P2
2022/03/08 00:02:23;;;;;;;42.67;29.42;;;;;;;-1.87;76.29;95791.13;6299528;22;20447;-59
2022/03/08 00:04:48;;;;;;;44.53;37.40;;;;;;;-1.84;76.58;95785.00;6299793;22;20095;-60
2022/03/08 00:07:14;;;;;;;55.70;41.10;;;;;;;-1.80;76.22;95787.38;6299354;22;20009;-60
2022/03/08 00:09:39;;;;;;;47.65;37.90;;;;;;;-1.85;77.44;95784.16;6299357;22;20086;-60
2022/03/08 00:12:05;;;;;;;52.72;40.13;;;;;;;-1.89;78.04;95782.59;6299470;22;20012;-59
2022/03/08 00:14:33;;;;;;;45.35;36.03;;;;;;;-1.91;77.51;95789.56;6299580;22;20086;-60
2022/03/08 00:16:58;;;;;;;37.65;29.33;;;;;;;-1.93;78.06;95783.63;6299787;22;20011;-60
2022/03/08 00:19:23;;;;;;;37.70;29.23;;;;;;;-1.90;77.99;95780.91;6299654;22;20007;-60
2022/03/08 00:21:49;;;;;;;34.63;27.10;;;;;;;-1.91;77.93;95779.25;6299318;22;20007;-60
2022/03/08 00:24:16;;;;;;;34.00;26.30;;;;;;;-1.94;78.72;95787.97;6298864;22;20007;-59
2022/03/08 00:26:42;;;;;;;32.15;26.55;;;;;;;-1.94;78.55;95790.53;6299472;22;20003;-60
2022/03/08 00:29:07;;;;;;;37.35;29.48;;;;;;;-1.99;78.91;95782.16;6299606;22;20047;-60
2022/03/08 00:31:33;;;;;;;39.20;29.98;;;;;;;-2.03;78.36;95788.31;6299858;22;20350;-60
2022/03/08 00:33:58;;;;;;;28.92;25.73;;;;;;;-2.00;77.96;95790.78;6299466;22;20011;-60
2022/03/08 00:36:23;;;;;;;35.25;26.70;;;;;;;-1.97;78.07;95794.97;6299039;22;20011;-60
2022/03/08 00:38:49;;;;;;;45.92;36.17;;;;;;;-1.99;78.64;95801.94;6299474;22;20011;-60
2022/03/08 00:41:14;;;;;;;36.05;30.33;;;;;;;-2.03;78.88;95796.06;6298395;22;20014;-59
2022/03/08 00:43:40;;;;;;;34.90;28.67;;;;;;;-2.00;79.09;95802.84;6298834;22;20090;-59
2022/03/08 00:46:05;;;;;;;31.83;25.98;;;;;;;-2.00;78.72;95805.44;6299205;22;20003;-60
2022/03/08 00:48:31;;;;;;;33.10;26.75;;;;;;;-2.05;79.37;95801.31;6298969;22;20435;-60
2022/03/08 00:50:56;;;;;;;34.20;27.80;;;;;;;-2.07;79.41;95810.00;6299113;22;20018;-60
2022/03/08 00:53:22;;;;;;;34.90;26.85;;;;;;;-2.11;79.80;95811.84;6298978;22;20008;-60
2022/03/08 00:55:47;;;;;;;36.50;29.15;;;;;;;-2.16;81.49;95812.06;6271864;22;20015;-60
2022/03/08 00:58:13;;;;;;;35.72;29.25;;;;;;;-2.18;81.40;95815.59;6298768;22;20007;-60
2022/03/08 01:00:39;;;;;;;48.05;33.15;;;;;;;-2.20;81.00;95819.97;6299544;22;20010;-60
2022/03/08 01:03:05;;;;;;;42.70;31.88;;;;;;;-2.25;80.86;95809.00;6298851;22;20430;-60
2022/03/08 01:05:31;;;;;;;38.38;30.80;;;;;;;-2.26;80.47;95808.16;6298927;22;20003;-60
2022/03/08 01:07:57;;;;;;;36.40;29.83;;;;;;;-2.27;81.23;95813.38;6299264;22;20032;-59
2022/03/08 01:10:24;;;;;;;37.20;29.33;;;;;;;-2.30;81.01;95814.34;6298561;22;20027;-60
2022/03/08 01:12:52;;;;;;;37.72;29.40;;;;;;;-2.37;82.08;95808.56;6299132;22;20007;-60
2022/03/08 01:15:19;;;;;;;39.40;31.90;;;;;;;-2.40;82.11;95813.84;6298495;22;20067;-60
2022/03/08 01:17:47;;;;;;;40.47;30.77;;;;;;;-2.38;80.76;95812.06;6299317;22;20004;-59
2022/03/08 01:20:14;;;;;;;37.05;30.52;;;;;;;-2.36;81.58;95804.25;6299419;22;20047;-60
2022/03/08 01:22:39;;;;;;;33.65;27.08;;;;;;;-2.39;79.96;95805.22;6298367;22;20011;-60
2022/03/08 01:25:05;;;;;;;35.65;27.45;;;;;;;-2.36;80.15;95809.44;6300250;22;20435;-60
2022/03/08 01:27:31;;;;;;;40.53;31.90;;;;;;;-2.38;80.33;95811.22;6299931;22;20007;-58
2022/03/08 01:29:56;;;;;;;34.90;29.55;;;;;;;-2.45;80.59;95815.78;6299996;22;20010;-60
2022/03/08 01:32:22;;;;;;;40.25;29.02;;;;;;;-2.48;80.56;95810.75;6300142;22;20019;-60
2022/03/08 01:34:47;;;;;;;36.53;29.48;;;;;;;-2.47;80.52;95810.66;6272850;22;20035;-60
2022/03/08 01:37:13;;;;;;;36.28;28.77;;;;;;;-2.48;81.42;95811.56;6300056;22;20014;-60
2022/03/08 01:39:38;;;;;;;32.60;27.63;;;;;;;-2.52;81.48;95806.59;6299784;22;20014;-60
2022/03/08 01:42:12;;;;;;;32.70;27.50;;;;;;;-2.51;80.74;95803.13;6300001;22;20011;-60
2022/03/08 01:44:46;;;;;;;32.60;26.27;;;;;;;-2.47;81.10;95805.50;6273067;22;20435;-60
2022/03/08 01:47:16;;;;;;;32.17;26.08;;;;;;;-2.49;80.71;95803.91;6300389;22;20055;-60
2022/03/08 01:49:43;;;;;;;34.00;26.52;;;;;;;-2.52;80.68;95798.88;6300222;22;20003;-60
2022/03/08 01:52:09;;;;;;;40.40;31.27;;;;;;;-2.54;80.13;95800.66;6300177;22;20000;-60
2022/03/08 01:54:35;;;;;;;41.80;31.05;;;;;;;-2.56;80.54;95797.28;6300333;22;20014;-60
2022/03/08 01:57:00;;;;;;;53.65;36.30;;;;;;;-2.63;81.05;95799.28;6300092;22;20343;-60
2022/03/08 01:59:26;;;;;;;50.47;34.90;;;;;;;-2.67;81.31;95795.13;6300000;22;20003;-59
2022/03/08 02:01:51;;;;;;;47.30;33.30;;;;;;;-2.68;80.88;95799.44;6300256;22;20007;-60
2022/03/08 02:04:17;;;;;;;39.50;29.92;;;;;;;-2.64;81.08;95800.19;6300056;22;20031;-60
2022/03/08 02:06:44;;;;;;;37.30;29.83;;;;;;;-2.64;80.79;95805.34;6272934;22;20043;-60
2022/03/08 02:09:10;;;;;;;54.85;38.15;;;;;;;-2.60;79.66;95802.56;6272478;22;20003;-59
2022/03/08 02:11:36;;;;;;;72.35;46.22;;;;;;;-2.63;80.34;95799.28;6300333;22;20078;-60
2022/03/08 02:14:02;;;;;;;58.53;37.50;;;;;;;-2.63;80.05;95796.72;6300073;22;20086;-61
2022/03/08 02:16:28;;;;;;;38.55;28.58;;;;;;;-2.68;80.48;95796.88;6300118;22;20026;-60
2022/03/08 02:18:53;;;;;;;37.92;30.63;;;;;;;-2.72;80.59;95795.31;6300053;22;20489;-60
2022/03/08 02:21:19;;;;;;;41.50;30.42;;;;;;;-2.78;81.23;95792.94;6272903;22;20010;-60
2022/03/08 02:23:44;;;;;;;42.08;31.30;;;;;;;-2.81;82.61;95793.06;6299739;22;20504;-60
2022/03/08 02:26:09;;;;;;;37.67;28.95;;;;;;;-2.81;82.00;95793.06;6300115;22;20003;-59
2022/03/08 02:28:35;;;;;;;37.88;28.90;;;;;;;-2.82;82.94;95793.97;6300221;22;20082;-60
2022/03/08 02:31:00;;;;;;;36.45;28.65;;;;;;;-2.83;83.09;95795.72;6299878;22;20003;-60
2022/03/08 02:33:26;;;;;;;36.72;27.55;;;;;;;-2.84;83.37;95795.75;6299711;22;20003;-59
2022/03/08 02:35:52;;;;;;;35.47;28.23;;;;;;;-2.86;82.43;95800.13;6299239;22;20003;-59
2022/03/08 02:38:17;;;;;;;36.40;27.88;;;;;;;-2.90;82.36;95800.25;6300241;22;20003;-59
2022/03/08 02:40:43;;;;;;;38.63;28.60;;;;;;;-2.92;82.93;95794.31;6299758;22;20059;-60
2022/03/08 02:43:11;;;;;;;38.50;29.83;;;;;;;-2.94;83.26;95797.84;6299780;22;20003;-59
2022/03/08 02:45:37;;;;;;;39.47;28.15;;;;;;;-2.95;83.69;95796.16;6300001;22;20482;-60
2022/03/08 02:48:03;;;;;;;35.85;28.63;;;;;;;-2.97;83.41;95801.41;6299961;22;20003;-59
2022/03/08 02:50:29;;;;;;;41.00;30.63;;;;;;;-3.03;83.43;95801.59;6299892;22;20006;-59
2022/03/08 02:52:56;;;;;;;39.22;30.42;;;;;;;-3.04;83.56;95803.34;6300441;22;20388;-60
2022/03/08 02:55:24;;;;;;;34.90;27.52;;;;;;;-3.07;83.03;95800.03;6299263;22;20007;-59
2022/03/08 02:57:51;;;;;;;40.30;30.85;;;;;;;-3.10;83.09;95795.00;6300073;22;20019;-60
2022/03/08 03:00:19;;;;;;;37.45;30.50;;;;;;;-3.14;83.23;95796.00;6299811;22;19996;-60
2022/03/08 03:02:45;;;;;;;43.30;30.60;;;;;;;-3.14;83.77;95793.44;6299981;22;20009;-60
2022/03/08 03:05:10;;;;;;;35.97;29.40;;;;;;;-3.18;83.09;95790.97;6272758;22;20101;-60
2022/03/08 03:07:37;;;;;;;37.85;29.00;;;;;;;-3.14;82.61;95793.44;6299774;22;20067;-59
2022/03/08 03:10:14;;;;;;;39.05;30.48;;;;;;;-3.14;82.22;95790.88;6299560;22;20026;-60
2022/03/08 03:12:39;;;;;;;42.30;30.30;;;;;;;-3.13;82.78;95793.38;6299768;22;20006;-60
2022/03/08 03:15:07;;;;;;;43.20;30.67;;;;;;;-3.20;82.68;95795.34;6300144;22;20000;-59
2022/03/08 03:17:32;;;;;;;40.63;31.38;;;;;;;-3.21;82.16;95790.25;6299586;22;20058;-60
2022/03/08 03:19:58;;;;;;;38.40;32.47;;;;;;;-3.27;83.61;95783.56;6299429;22;20419;-60
2022/03/08 03:22:23;;;;;;;41.92;31.58;;;;;;;-3.24;83.44;95793.75;6299837;22;20052;-60
2022/03/08 03:24:49;;;;;;;38.22;30.05;;;;;;;-3.24;84.45;95790.34;6300009;22;20007;-60
2022/03/08 03:27:14;;;;;;;43.63;30.90;;;;;;;-3.32;83.45;95780.31;6299673;22;20384;-59
2022/03/08 03:29:39;;;;;;;40.28;30.33;;;;;;;-3.30;83.28;95788.84;6299956;22;20006;-60
2022/03/08 03:32:05;;;;;;;43.03;31.33;;;;;;;-3.31;83.71;95784.56;6299658;22;20824;-59
2022/03/08 03:34:31;;;;;;;37.90;29.92;;;;;;;-3.31;82.74;95782.00;6299605;22;20131;-60
2022/03/08 03:36:56;;;;;;;42.13;30.98;;;;;;;-3.34;82.59;95775.22;6299733;22;20066;-60
2022/03/08 03:39:22;;;;;;;43.72;33.40;;;;;;;-3.36;83.38;95781.34;6299613;22;20099;-60
2022/03/08 03:41:47;;;;;;;45.00;31.98;;;;;;;-3.39;83.00;95776.31;6299490;22;20003;-60
2022/03/08 03:44:13;;;;;;;41.45;29.17;;;;;;;-3.45;83.90;95783.31;6299282;22;20011;-60
2022/03/08 03:46:38;;;;;;;35.25;27.55;;;;;;;-3.45;83.22;95780.75;6299396;22;20462;-60
2022/03/08 03:49:04;;;;;;;36.50;26.90;;;;;;;-3.43;83.79;95779.84;6299453;22;20082;-60
2022/03/08 03:51:29;;;;;;;35.78;28.25;;;;;;;-3.33;83.00;95779.47;6299950;22;19999;-60
2022/03/08 03:53:55;;;;;;;37.92;28.75;;;;;;;-3.32;83.56;95783.75;6299838;22;20045;-59
2022/03/08 03:56:20;;;;;;;37.53;27.90;;;;;;;-3.36;83.21;95781.34;6299842;22;20335;-60
2022/03/08 03:58:46;;;;;;;37.80;28.15;;;;;;;-3.39;84.35;95786.59;6299255;22;20003;-60
2022/03/08 04:01:11;;;;;;;36.47;28.15;;;;;;;-3.43;84.89;95791.00;6299986;22;20030;-60
2022/03/08 04:03:36;;;;;;;36.47;27.23;;;;;;;-3.47;84.42;95792.84;6299685;22;20094;-60
2022/03/08 04:06:02;;;;;;;34.53;27.58;;;;;;;-3.43;84.25;95787.56;6299630;22;20454;-60
2022/03/08 04:08:27;;;;;;;38.88;28.63;;;;;;;-3.40;83.68;95780.59;6299365;22;20003;-60
2022/03/08 04:10:53;;;;;;;48.22;34.13;;;;;;;-3.36;83.82;95787.31;6271741;22;20053;-60
2022/03/08 04:13:19;;;;;;;40.38;29.88;;;;;;;-3.39;83.48;95784.84;6299697;22;20045;-59
2022/03/08 04:15:45;;;;;;;52.45;34.53;;;;;;;-3.41;84.02;95789.22;6299473;22;20341;-60
2022/03/08 04:18:12;;;;;;;41.75;30.13;;;;;;;-3.46;84.02;95788.53;6299469;22;20007;-60
2022/03/08 04:20:37;;;;;;;46.05;31.52;;;;;;;-3.52;84.27;95792.16;6299417;22;20458;-60
2022/03/08 04:23:03;;;;;;;38.53;30.02;;;;;;;-3.53;85.06;95785.34;6299065;22;20007;-59
2022/03/08 04:25:28;;;;;;;40.83;29.23;;;;;;;-3.56;85.52;95784.59;6272300;22;20087;-60
2022/03/08 04:27:54;;;;;;;36.28;28.13;;;;;;;-3.56;85.47;95785.44;6299571;22;20767;-60
2022/03/08 04:30:19;;;;;;;36.90;28.40;;;;;;;-3.54;85.48;95782.81;6299263;22;20435;-60
2022/03/08 04:32:45;;;;;;;37.28;26.42;;;;;;;-3.60;85.28;95786.47;6298973;22;20014;-59
2022/03/08 04:35:10;;;;;;;37.88;28.17;;;;;;;-3.61;85.17;95788.19;6298769;22;20450;-60
2022/03/08 04:37:36;;;;;;;40.42;29.58;;;;;;;-3.62;85.37;95795.97;6299229;22;20000;-60
2022/03/08 04:40:05;;;;;;;42.63;28.90;;;;;;;-3.64;85.89;95793.44;6299560;22;19995;-60
2022/03/08 04:42:30;;;;;;;40.53;29.98;;;;;;;-3.68;85.87;95791.00;6299006;22;20030;-60
2022/03/08 04:44:55;;;;;;;37.35;28.33;;;;;;;-3.65;84.92;95789.19;6299117;22;20003;-60
2022/03/08 04:47:21;;;;;;;42.38;30.10;;;;;;;-3.68;84.77;95797.00;6299608;22;20478;-60
2022/03/08 04:49:46;;;;;;;39.22;28.90;;;;;;;-3.70;85.41;95790.22;6298985;22;20018;-60
2022/03/08 04:52:11;;;;;;;47.95;32.08;;;;;;;-3.74;85.25;95792.09;6298623;22;20127;-60
2022/03/08 04:54:37;;;;;;;46.75;32.88;;;;;;;-3.75;85.48;95801.53;6299535;22;20027;-60
2022/03/08 04:57:03;;;;;;;43.75;31.30;;;;;;;-3.72;85.48;95804.88;6299054;22;20023;-60
2022/03/08 04:59:28;;;;;;;41.38;31.60;;;;;;;-3.75;84.75;95800.69;6299648;22;20007;-60
2022/03/08 05:01:54;;;;;;;40.15;29.65;;;;;;;-3.76;84.43;95804.97;6272515;22;20026;-60
2022/03/08 05:04:21;;;;;;;34.53;25.80;;;;;;;-3.85;84.59;95807.88;6299740;22;20014;-60
2022/03/08 05:06:47;;;;;;;40.15;29.33;;;;;;;-3.89;84.44;95814.00;6300102;22;20010;-60
2022/03/08 05:09:12;;;;;;;37.30;27.48;;;;;;;-3.92;84.90;95809.81;6300612;22;19999;-60
2022/03/08 05:11:38;;;;;;;41.50;29.70;;;;;;;-3.93;84.65;95808.13;6300642;22;20086;-60
2022/03/08 05:14:03;;;;;;;40.13;26.60;;;;;;;-3.87;84.52;95807.06;6300561;22;20006;-60
2022/03/08 05:16:28;;;;;;;42.22;28.70;;;;;;;-3.87;83.96;95804.50;6299805;22;20346;-60
2022/03/08 05:18:54;;;;;;;46.75;31.17;;;;;;;-3.89;84.20;95803.69;6300320;22;20007;-60
2022/03/08 05:21:19;;;;;;;53.10;32.47;;;;;;;-3.89;84.34;95803.69;6300221;22;20003;-60
2022/03/08 05:23:45;;;;;;;37.92;26.27;;;;;;;-3.95;84.83;95798.78;6299986;22;20007;-59
2022/03/08 05:26:10;;;;;;;40.45;27.77;;;;;;;-3.99;85.14;95802.34;6300068;22;20004;-59
2022/03/08 05:28:36;;;;;;;43.08;26.77;;;;;;;-3.98;85.84;95799.72;6299713;22;20000;-60
2022/03/08 05:31:01;;;;;;;43.50;28.05;;;;;;;-3.95;85.25;95799.63;6300382;22;20007;-60
2022/03/08 05:33:26;;;;;;;38.38;25.88;;;;;;;-3.93;85.77;95790.13;6300382;22;20363;-59
2022/03/08 05:35:52;;;;;;;39.05;25.17;;;;;;;-3.94;85.04;95795.31;6299889;22;20023;-60
2022/03/08 05:38:18;;;;;;;35.58;25.42;;;;;;;-3.94;84.87;95792.72;6299422;22;19999;-60
2022/03/08 05:40:44;;;;;;;33.42;25.20;;;;;;;-3.94;85.29;95792.72;6272712;22;20030;-59
2022/03/08 05:43:10;;;;;;;34.42;24.33;;;;;;;-3.96;85.36;95787.66;6299327;22;20010;-60
2022/03/08 05:45:35;;;;;;;30.38;23.08;;;;;;;-3.99;85.39;95787.72;6272272;22;20007;-60
2022/03/08 05:48:01;;;;;;;28.23;21.88;;;;;;;-3.95;85.28;95791.91;6300529;22;20512;-60
2022/03/08 05:50:26;;;;;;;31.20;24.35;;;;;;;-3.94;85.04;95787.59;6300010;22;20149;-60
2022/03/08 05:52:52;;;;;;;32.38;23.45;;;;;;;-4.00;85.55;95785.22;6272865;22;20018;-60
2022/03/08 05:55:17;;;;;;;35.08;22.83;;;;;;;-4.05;86.20;95793.94;6272836;22;20434;-60
2022/03/08 05:57:42;;;;;;;38.95;23.40;;;;;;;-4.09;86.04;95787.22;6272682;22;20018;-60
2022/03/08 06:00:09;;;;;;;34.30;24.13;;;;;;;-4.09;85.85;95792.38;6299036;22;20040;-59
2022/03/08 06:02:35;;;;;;;36.65;22.60;;;;;;;-4.08;85.92;95790.63;6300152;22;20118;-60
2022/03/08 06:05:00;;;;;;;34.15;24.20;;;;;;;-4.12;85.93;95809.63;6300289;22;19999;-60
2022/03/08 06:07:26;;;;;;;36.60;25.17;;;;;;;-4.16;86.04;95808.88;6299964;22;20083;-59
2022/03/08 06:09:51;;;;;;;34.80;25.20;;;;;;;-4.14;86.41;95813.97;6299653;22;20011;-59
2022/03/08 06:12:17;;;;;;;42.45;25.08;;;;;;;-4.09;85.62;95815.50;6300032;22;20029;-60
2022/03/08 06:14:42;;;;;;;34.97;25.10;;;;;;;-4.05;86.24;95818.81;6300072;22;20011;-60
2022/03/08 06:17:09;;;;;;;31.90;25.00;;;;;;;-4.06;85.89;95823.13;6298450;22;20411;-60
2022/03/08 06:19:35;;;;;;;33.55;26.00;;;;;;;-4.04;85.63;95826.50;6298986;22;20003;-59
2022/03/08 06:22:00;;;;;;;35.15;25.40;;;;;;;-4.03;85.95;95830.75;6299270;22;19999;-60
2022/03/08 06:24:26;;;;;;;35.42;25.85;;;;;;;-4.08;86.67;95832.63;6298687;22;20332;-60
2022/03/08 06:26:51;;;;;;;31.65;25.48;;;;;;;-4.08;86.41;95832.63;6299030;22;20006;-60
2022/03/08 06:29:17;;;;;;;38.92;25.77;;;;;;;-4.06;86.23;95828.28;6299712;22;20334;-60
2022/03/08 06:31:42;;;;;;;38.83;24.73;;;;;;;-4.00;86.19;95836.66;6298336;22;20003;-59
2022/03/08 06:34:07;;;;;;;34.67;27.25;;;;;;;-3.95;85.54;95840.78;6298219;22;20042;-60
2022/03/08 06:36:34;;;;;;;40.97;28.98;;;;;;;-3.90;85.73;95838.91;6299153;22;20007;-60
2022/03/08 06:39:00;;;;;;;38.50;27.20;;;;;;;-3.90;86.23;95828.59;6299766;22;20019;-60
2022/03/08 06:41:26;;;;;;;34.65;27.33;;;;;;;-3.88;86.61;95833.69;6299175;22;20003;-60
2022/03/08 06:43:51;;;;;;;36.78;29.83;;;;;;;-3.88;86.04;95837.09;6299199;22;20082;-60
2022/03/08 06:46:17;;;;;;;38.00;28.73;;;;;;;-3.85;87.08;95831.03;6299267;22;20023;-60
2022/03/08 06:48:42;;;;;;;37.13;27.80;;;;;;;-3.81;86.38;95836.91;6299675;22;20018;-61
2022/03/08 06:51:08;;;;;;;39.13;27.63;;;;;;;-3.76;86.22;95841.00;6299951;22;20007;-60
2022/03/08 06:53:33;;;;;;;39.15;27.92;;;;;;;-3.72;86.19;95841.75;6299793;22;20100;-60
2022/03/08 06:55:59;;;;;;;33.17;24.70;;;;;;;-3.71;86.35;95845.16;6297287;22;20063;-52
2022/03/08 06:58:24;;;;;;;35.28;25.02;;;;;;;-3.65;86.70;95844.94;6298074;22;20007;-53
2022/03/08 07:00:49;;;;;;;36.83;25.88;;;;;;;-3.61;85.83;95843.97;6299271;22;20339;-53
2022/03/08 07:03:15;;;;;;;36.38;24.95;;;;;;;-3.56;86.19;95849.78;6298279;22;20017;-52
2022/03/08 07:05:40;;;;;;;35.13;25.60;;;;;;;-3.53;85.94;95857.41;6298831;22;20003;-52
2022/03/08 07:08:06;;;;;;;34.58;26.58;;;;;;;-3.50;85.87;95857.31;6298729;22;19995;-52
2022/03/08 07:10:32;;;;;;;35.30;25.52;;;;;;;-3.52;85.42;95856.53;6298624;22;20023;-51
2022/03/08 07:12:57;;;;;;;36.65;26.10;;;;;;;-3.49;85.35;95861.56;6298047;22;20013;-51
2022/03/08 07:15:23;;;;;;;39.50;26.35;;;;;;;-3.45;84.92;95859.72;6299181;22;20010;-51
2022/03/08 07:17:48;;;;;;;34.78;25.52;;;;;;;-3.38;85.04;95860.38;6299105;22;20003;-50
2022/03/08 07:20:15;;;;;;;41.38;26.92;;;;;;;-3.33;84.30;95861.88;6272529;22;20354;-53
2022/03/08 07:22:41;;;;;;;48.58;27.00;;;;;;;-3.27;84.06;95858.25;6299268;22;20007;-53
2022/03/08 07:25:08;;;;;;;36.45;26.10;;;;;;;-3.22;83.77;95866.66;6299449;22;20361;-52
2022/03/08 07:27:33;;;;;;;34.05;26.23;;;;;;;-3.14;84.08;95865.56;6300331;22;20007;-53
2022/03/08 07:29:59;;;;;;;31.23;25.50;;;;;;;-3.11;83.87;95870.59;6299315;22;20334;-52
2022/03/08 07:32:24;;;;;;;32.35;23.00;;;;;;;-3.08;83.93;95865.34;6299806;22;20003;-55
2022/03/08 07:34:50;;;;;;;38.25;26.38;;;;;;;-3.06;84.36;95871.25;6299667;22;20003;-49
2022/03/08 07:37:15;;;;;;;37.72;25.73;;;;;;;-3.01;83.71;95866.78;6299871;22;20059;-54
2022/03/08 07:39:41;;;;;;;41.10;24.67;;;;;;;-2.89;82.96;95861.19;6300012;22;20003;-54
2022/03/08 07:42:06;;;;;;;39.88;29.17;;;;;;;-2.79;82.54;95864.28;6299194;22;20388;-54
2022/03/08 07:44:32;;;;;;;36.45;25.08;;;;;;;-2.75;82.13;95865.03;6300422;22;20090;-51
2022/03/08 07:46:57;;;;;;;34.55;24.58;;;;;;;-2.70;82.21;95868.25;6299569;22;20007;-53
2022/03/08 07:49:25;;;;;;;32.88;22.83;;;;;;;-2.65;82.25;95871.50;6299651;22;20087;-54
2022/03/08 07:51:50;;;;;;;49.67;25.60;;;;;;;-2.60;82.08;95873.94;6300279;22;20022;-56
2022/03/08 07:54:16;;;;;;;37.72;23.88;;;;;;;-2.41;83.00;95873.25;6299396;22;20007;-53
2022/03/08 07:56:42;;;;;;;43.70;27.50;;;;;;;-1.75;81.39;95875.78;6299243;22;20075;-52
2022/03/08 07:59:07;;;;;;;45.08;26.77;;;;;;;-0.78;79.46;95866.59;6299973;22;19999;-52
2022/03/08 08:01:33;;;;;;;35.35;22.92;;;;;;;-0.15;75.08;95857.72;6299321;22;20078;-55
2022/03/08 08:03:58;;;;;;;36.85;22.67;;;;;;;0.41;72.76;95860.25;6298973;22;20022;-53
2022/03/08 08:06:23;;;;;;;28.92;20.33;;;;;;;0.84;70.78;95858.09;6299436;22;20343;-54
2022/03/08 08:08:49;;;;;;;25.55;19.50;;;;;;;1.15;69.09;95863.47;6299903;22;19999;-53
2022/03/08 08:11:14;;;;;;;29.83;21.58;;;;;;;1.68;67.45;95861.53;6299527;22;20070;-51
2022/03/08 08:13:40;;;;;;;26.48;21.20;;;;;;;1.80;66.29;95866.97;6299461;22;20011;-53
2022/03/08 08:16:05;;;;;;;27.20;21.48;;;;;;;2.05;66.08;95863.00;6299798;22;20006;-55
2022/03/08 08:18:30;;;;;;;24.00;18.92;;;;;;;2.35;65.99;95862.22;6300008;22;20014;-55
2022/03/08 08:20:56;;;;;;;27.95;19.95;;;;;;;2.93;63.75;95863.22;6299055;22;20373;-55
2022/03/08 08:23:21;;;;;;;24.48;18.85;;;;;;;3.10;62.04;95859.59;6298748;22;20048;-56
2022/03/08 08:25:46;;;;;;;28.77;19.98;;;;;;;3.49;61.26;95862.47;6299808;22;20010;-56
2022/03/08 08:28:12;;;;;;;28.42;21.58;;;;;;;3.62;60.22;95852.16;6299949;22;20003;-57
2022/03/08 08:30:37;;;;;;;38.38;24.05;;;;;;;3.49;60.37;95857.28;6300039;22;20023;-55
2022/03/08 08:33:03;;;;;;;26.20;20.27;;;;;;;3.46;60.69;95860.06;6300245;22;20011;-55
2022/03/08 08:35:29;;;;;;;24.17;19.05;;;;;;;3.30;62.17;95857.56;6301250;22;20006;-55
2022/03/08 08:37:55;;;;;;;26.00;20.17;;;;;;;3.55;60.83;95853.47;6301085;22;20390;-54
2022/03/08 08:40:20;;;;;;;22.73;19.55;;;;;;;3.85;58.65;95850.72;6301244;22;20375;-53
2022/03/08 08:42:45;;;;;;;20.58;18.27;;;;;;;4.06;56.14;95846.84;6301010;22;20024;-54
2022/03/08 08:45:11;;;;;;;28.98;19.08;;;;;;;4.16;56.29;95848.75;6301090;22;20347;-54
2022/03/08 08:47:36;;;;;;;21.65;19.33;;;;;;;4.03;54.92;95852.25;6301292;22;20053;-54
2022/03/08 08:50:03;;;;;;;24.55;21.05;;;;;;;4.34;55.10;95855.50;6273921;22;20565;-54
2022/03/08 08:52:28;;;;;;;23.67;20.45;;;;;;;4.43;54.91;95860.13;6274005;22;20022;-51
2022/03/08 08:54:54;;;;;;;29.52;22.88;;;;;;;4.51;56.00;95855.22;6301378;22;20431;-55
2022/03/08 08:57:20;;;;;;;29.73;23.38;;;;;;;4.44;52.99;95847.00;6273864;22;20044;-55
2022/03/08 08:59:45;;;;;;;26.23;22.23;;;;;;;4.43;54.79;95852.28;6300678;22;20037;-55
2022/03/08 09:02:10;;;;;;;33.10;23.65;;;;;;;4.61;53.55;95849.41;6299721;22;20410;-54
2022/03/08 09:04:36;;;;;;;30.58;22.80;;;;;;;4.54;53.17;95846.38;6300862;22;20032;-53
2022/03/08 09:07:01;;;;;;;32.92;22.48;;;;;;;4.44;53.18;95838.31;6301098;22;20008;-55
2022/03/08 09:09:27;;;;;;;23.80;20.23;;;;;;;4.71;54.67;95840.88;6301075;22;20477;-51
2022/03/08 09:11:52;;;;;;;21.70;19.48;;;;;;;4.64;55.81;95851.81;6301069;22;20070;-54
2022/03/08 09:14:18;;;;;;;26.58;19.90;;;;;;;4.75;55.64;95844.09;6301009;22;20017;-53
2022/03/08 09:16:43;;;;;;;25.15;21.17;;;;;;;5.01;53.93;95855.41;6301015;22;20044;-53
2022/03/08 09:19:10;;;;;;;24.40;21.42;;;;;;;5.05;52.06;95842.16;6300946;22;20427;-51
2022/03/08 09:21:36;;;;;;;27.92;21.40;;;;;;;5.20;51.37;95845.53;6301026;22;20435;-54
2022/03/08 09:24:02;;;;;;;26.75;21.73;;;;;;;5.14;50.42;95849.38;6300875;22;20140;-52
2022/03/08 09:26:27;;;;;;;26.27;21.13;;;;;;;5.61;51.71;95844.41;6301857;22;20044;-53
2022/03/08 09:28:52;;;;;;;26.85;21.90;;;;;;;5.74;49.52;95840.00;6301033;22;20383;-54
2022/03/08 09:31:18;;;;;;;26.08;21.55;;;;;;;5.68;49.77;95843.06;6300995;22;20003;-55
2022/03/08 09:33:44;;;;;;;23.58;20.88;;;;;;;6.04;50.41;95844.94;6300960;22;20546;-54
2022/03/08 09:36:10;;;;;;;27.38;21.58;;;;;;;6.37;49.07;95846.09;6301126;22;20494;-54
2022/03/08 09:38:37;;;;;;;30.48;22.90;;;;;;;6.55;49.22;95838.66;6301080;22;20003;-53
2022/03/08 09:41:03;;;;;;;26.38;21.55;;;;;;;6.87;47.66;95838.06;6301072;22;20008;-54
2022/03/08 09:43:30;;;;;;;27.98;21.67;;;;;;;7.27;46.93;95837.63;6273434;22;20384;-56
2022/03/08 09:45:55;;;;;;;25.00;22.02;;;;;;;7.29;46.33;95838.38;6300418;22;20010;-52
2022/03/08 09:48:21;;;;;;;30.63;22.35;;;;;;;7.65;45.17;95830.38;6301023;22;20000;-55
2022/03/08 09:50:46;;;;;;;25.70;22.02;;;;;;;7.74;45.02;95828.81;6301072;22;20457;-55
2022/03/08 09:53:12;;;;;;;33.83;23.00;;;;;;;7.93;44.25;95830.81;6300828;22;20078;-56
2022/03/08 09:55:38;;;;;;;29.95;24.70;;;;;;;8.23;43.10;95829.28;6301323;22;20078;-55
2022/03/08 09:58:05;;;;;;;29.63;23.55;;;;;;;8.42;41.98;95817.31;6300717;22;20014;-51
2022/03/08 10:00:32;;;;;;;25.98;22.63;;;;;;;8.65;42.13;95814.63;6300800;22;20435;-55
2022/03/08 10:02:59;;;;;;;31.30;25.02;;;;;;;8.87;42.29;95821.56;6300797;22;20003;-55
2022/03/08 10:05:27;;;;;;;31.85;25.17;;;;;;;9.43;39.90;95819.50;6300970;22;20051;-55
2022/03/08 10:08:10;;;;;;;29.55;25.80;;;;;;;9.40;39.91;95819.75;6300933;22;20028;-55
2022/03/08 10:10:58;;;;;;;28.52;24.27;;;;;;;9.72;38.38;95811.72;6300663;22;20011;-54
2022/03/08 10:13:30;;;;;;;30.20;24.65;;;;;;;9.75;36.58;95808.00;6300839;22;20031;-56
2022/03/08 10:16:05;;;;;;;30.95;23.83;;;;;;;9.85;37.55;95806.22;6301255;22;20011;-55
2022/03/08 10:18:35;;;;;;;33.83;23.33;;;;;;;9.65;37.35;95800.09;6300834;22;20070;-54
2022/03/08 10:21:01;;;;;;;26.40;23.20;;;;;;;9.69;39.36;95796.22;6300696;22;20003;-55
2022/03/08 10:23:26;;;;;;;32.05;24.75;;;;;;;9.64;36.78;95797.56;6300394;22;20018;-54
2022/03/08 10:25:52;;;;;;;31.83;25.13;;;;;;;9.44;38.89;95784.38;6300986;22;20100;-55
2022/03/08 10:28:17;;;;;;;31.55;25.23;;;;;;;9.73;39.22;95787.09;6300695;22;20010;-53
2022/03/08 10:30:43;;;;;;;48.33;33.95;;;;;;;9.64;37.83;95787.91;6300785;22;20457;-55
2022/03/08 10:33:09;;;;;;;30.92;26.65;;;;;;;9.83;37.96;95786.28;6300586;22;19995;-55
2022/03/08 10:35:39;;;;;;;28.73;25.60;;;;;;;10.20;37.88;95783.03;6300556;22;20463;-55
2022/03/08 10:38:13;;;;;;;27.80;24.20;;;;;;;10.59;36.74;95775.16;6300669;22;20021;-54
2022/03/08 10:40:40;;;;;;;24.50;21.90;;;;;;;10.79;37.34;95774.28;6300918;22;20010;-56
2022/03/08 10:43:17;;;;;;;30.83;23.73;;;;;;;11.38;35.36;95760.97;6300609;22;20262;-54
2022/03/08 10:45:47;;;;;;;30.48;24.17;;;;;;;11.49;34.36;95760.75;6300775;22;20052;-54
2022/03/08 10:48:17;;;;;;;27.08;23.73;;;;;;;11.91;34.89;95756.81;6300532;22;20035;-54
2022/03/08 10:50:43;;;;;;;27.60;24.58;;;;;;;11.99;33.11;95754.25;6300785;22;19999;-50
2022/03/08 10:53:11;;;;;;;28.58;23.65;;;;;;;12.66;32.56;95747.78;6300436;22;20487;-51
2022/03/08 10:55:46;;;;;;;26.27;22.75;;;;;;;12.47;31.69;95748.75;6299723;22;20056;-54
2022/03/08 10:58:13;;;;;;;26.10;22.95;;;;;;;12.51;31.05;95758.06;6298791;22;20010;-54
2022/03/08 11:00:43;;;;;;;28.13;23.60;;;;;;;12.24;31.80;95741.31;6299564;22;19999;-57
2022/03/08 11:03:13;;;;;;;30.25;23.52;;;;;;;12.00;32.49;95752.44;6299577;22;20042;-51
2022/03/08 11:05:42;;;;;;;26.88;22.92;;;;;;;11.85;31.70;95752.13;6300394;22;20007;-54
2022/03/08 11:08:08;;;;;;;29.23;23.70;;;;;;;12.11;31.95;95736.41;6300484;22;20431;-53
2022/03/08 11:10:35;;;;;;;27.42;23.67;;;;;;;12.53;32.24;95734.97;6300671;22;20400;-54
2022/03/08 11:13:01;;;;;;;26.88;23.23;;;;;;;12.86;31.41;95743.13;6300403;22;20003;-54
2022/03/08 11:15:29;;;;;;;27.27;24.25;;;;;;;12.31;31.94;95738.91;6300532;22;20033;-52